LGSR Airport Information

Runway Information
Runway 16L Length 6972 ft width 98 ft
Elevation 123 ft Threshold 0 ft Heading 159
Runway 34R Length 6972 ft Width 98 ft
Elevation 53 ft Threshold 0 ft Heading 339
Runway 16R Length 0 ft width 0 ft
Elevation 126 ft Threshold 0 ft Heading 0
Runway 34L Length 0 ft Width 0 ft
Elevation 57 ft Threshold 0 ft Heading 0
Airport Frequencies
Type A/G Name RDO Frequency 563.7 MHZ
Type APP Name APP Frequency 118.05 MHZ
Type TWR Name TWR Frequency 118.05 MHZ
Airport Navaids
Type TACAN Name Santorini Frequency 116400 KHZ
Type VOR-DME Name Santorini Frequency 110400 KHZ
Type NDB Name Thira Frequency 307 KHZ
Airport Weather Information & NOTAM
ADDS - METARS form results

(1929 UTC 23 May 2019)
Data provider http://aviationweather.gov/metar/data/
 
METAR text: LGSR 231920Z 27004KT 9999 FEW025 20/14 Q1010
Conditions at: LGSR (SANTORINI ISLAND, GR) observed 1920 UTC 23 May 2019
Temperature: 20.0°C (68°F)
Dewpoint: 14.0°C (57°F) [RH = 68%]
Pressure (altimeter): 29.82 inches Hg (1010.0 mb)
Winds: from the W (270 degrees) at 5 MPH (4 knots; 2.1 m/s)
Visibility: 6 or more miles (10+ km)
Ceiling: at least 12,000 feet AGL
Clouds: few clouds at 2500 feet AGL
Weather: no significant weather observed at this time

METAR text: LGSR 231850Z 27005KT 9999 FEW025 21/12 Q1010 RMK FEW080 BLU
Conditions at: LGSR (SANTORINI ISLAND, GR) observed 1850 UTC 23 May 2019
Temperature: 21.0°C (70°F)
Dewpoint: 12.0°C (54°F) [RH = 56%]
Pressure (altimeter): 29.82 inches Hg (1010.0 mb)
Winds: from the W (270 degrees) at 6 MPH (5 knots; 2.6 m/s)
Visibility: 6 or more miles (10+ km)
Ceiling: at least 12,000 feet AGL
Clouds: few clouds at 2500 feet AGL
Weather: no significant weather observed at this time

Forecast for: LGSR (SANTORINI ISLAND, GR)
Text: TAF LGSR 231700Z 2318/2418 25012KT 9999 FEW025
Forecast period: 1800 UTC 23 May 2019 to 1800 UTC 24 May 2019
Forecast type: FROM: standard forecast or significant change
Winds: from the WSW (250 degrees) at 14 MPH (12 knots; 6.2 m/s)
Visibility: 6 or more miles 10+ km)
Ceiling: at least 12,000 feet AGL
Clouds: few clouds at 2500 feet AGL
Weather: no significant weather forecast for this period
Text: TEMPO 2318/2324 25015G25KT
Forecast period: 1800 UTC 23 May 2019 to 0000 UTC 24 May 2019
Forecast type: TEMPORARY: The following changes expected for less than half the time period
Winds: from the WSW (250 degrees) at 17 MPH (15 knots; 7.7 m/s)
gusting to 29 MPH (25 knots; 12.9 m/s)
Visibility: missing
Ceiling: unknown
Clouds: missing
Weather: no significant weather forecast for this period